Terminal Aerodrome Forecast
Issued by NWS Wilmington, OH

Current Version | Previous Version | Text Only | Print | Product List | Glossary Off
Versions: 1 2 3 4 5 6 7 8 9 10 11 12 13 14 15 16

000
FTUS41 KILN 081300 AAB
TAFDAY
TAF AMD
KDAY 081307Z 0813/0912 22012G24KT P6SM SCT035 BKN120
     FM082000 24014G26KT P6SM VCTS BKN035CB
     FM082300 27009KT P6SM BKN040
     FM090600 28005KT P6SM SCT040
      TEMPO 0909/0912 4SM BR SCT005=

USA.gov is the U.S. government's official web portal to all federal, state and local government web resources and services.